createdAt,value
2023-02-18T00:02:55.350Z,9.49
2023-02-18T00:08:04.888Z,9.63
2023-02-18T00:13:21.215Z,9.57
2023-02-18T00:18:22.115Z,9.41
2023-02-18T00:23:26.256Z,9.61
2023-02-18T00:28:27.566Z,9.39
2023-02-18T00:33:28.628Z,9.51
2023-02-18T00:38:25.891Z,9.18
2023-02-18T00:43:34.060Z,9.23
2023-02-18T00:48:36.714Z,9.53
2023-02-18T00:53:36.489Z,9.51
2023-02-18T00:58:37.306Z,9.33
2023-02-18T01:03:40.390Z,9.57
2023-02-18T01:08:42.286Z,9.68
2023-02-18T01:13:48.751Z,9.32
2023-02-18T01:18:46.226Z,9.42
2023-02-18T01:23:50.272Z,9.54
2023-02-18T01:28:48.647Z,9.38
2023-02-18T01:33:55.175Z,9.91
2023-02-18T01:38:53.243Z,9.76
2023-02-18T01:44:25.099Z,9.95
2023-02-18T01:49:39.755Z,9.68
2023-02-18T01:54:42.800Z,9.70
2023-02-18T01:59:46.499Z,10.26
2023-02-18T02:04:52.669Z,9.89
2023-02-18T02:09:58.242Z,10.26
2023-02-18T02:15:17.130Z,9.96
2023-02-18T02:20:52.070Z,10.17
2023-02-18T02:26:28.906Z,10.16
2023-02-18T02:32:13.245Z,10.50
2023-02-18T02:37:25.165Z,10.49
2023-02-18T02:42:37.378Z,10.66
2023-02-18T02:47:53.776Z,10.63
2023-02-18T02:53:09.183Z,10.32
2023-02-18T02:58:18.219Z,10.38
2023-02-18T03:03:57.069Z,11.05
2023-02-18T03:09:07.464Z,10.58
2023-02-18T03:14:13.924Z,10.78
2023-02-18T03:19:24.431Z,11.24
2023-02-18T03:24:45.253Z,11.04
2023-02-18T03:30:00.039Z,10.95
2023-02-18T03:35:08.019Z,10.84
2023-02-18T03:40:10.737Z,11.05
2023-02-18T03:45:13.255Z,11.47
2023-02-18T03:50:15.090Z,11.68
2023-02-18T03:55:27.788Z,11.74
2023-02-18T04:00:35.528Z,11.19
2023-02-18T04:05:44.817Z,11.71
2023-02-18T04:10:59.852Z,11.91
2023-02-18T04:16:00.326Z,11.33
2023-02-18T04:20:58.593Z,11.49
2023-02-18T04:26:03.160Z,11.63
2023-02-18T04:31:09.491Z,11.50
2023-02-18T04:41:37.152Z,11.24
2023-02-18T04:46:37.019Z,11.29
2023-02-18T04:51:47.205Z,11.61
2023-02-18T05:02:13.855Z,11.78
2023-02-18T05:07:28.317Z,11.40
2023-02-18T05:12:42.116Z,11.92
2023-02-18T05:17:43.662Z,11.97
2023-02-18T05:22:50.595Z,11.61
2023-02-18T05:28:28.165Z,11.88
2023-02-18T05:33:35.861Z,12.32
2023-02-18T05:38:55.076Z,11.73
2023-02-18T05:44:29.297Z,11.97
2023-02-18T05:50:14.919Z,11.93
2023-02-18T05:55:26.531Z,12.35
2023-02-18T06:00:57.245Z,11.98
2023-02-18T06:06:01.035Z,12.14
2023-02-18T06:11:04.523Z,12.55
2023-02-18T06:16:47.036Z,12.54
2023-02-18T06:27:18.830Z,12.97
2023-02-18T06:32:21.581Z,13.07
2023-02-18T06:37:31.131Z,13.00
2023-02-18T06:42:45.063Z,13.26
2023-02-18T06:47:47.892Z,13.28
2023-02-18T06:52:54.119Z,12.90
2023-02-18T06:58:08.292Z,12.97
2023-02-18T07:03:21.445Z,13.56
2023-02-18T07:08:20.208Z,13.59
2023-02-18T07:14:27.214Z,13.46
2023-02-18T07:20:21.288Z,14.00
2023-02-18T07:25:42.233Z,14.37
2023-02-18T07:31:14.136Z,14.56
2023-02-18T07:38:47.927Z,14.75
2023-02-18T07:42:08.902Z,15.39
2023-02-18T07:47:26.922Z,15.13
2023-02-18T07:52:49.489Z,15.69
2023-02-18T07:58:06.517Z,15.89
2023-02-18T08:04:06.710Z,15.83
2023-02-18T08:09:37.522Z,16.31
2023-02-18T08:27:01.878Z,16.98
2023-02-18T08:44:29.213Z,17.55
2023-02-18T08:50:04.931Z,17.69
2023-02-18T08:55:16.334Z,18.29
2023-02-18T09:00:24.560Z,18.24
2023-02-18T09:05:56.530Z,18.14
2023-02-18T09:11:14.153Z,17.89
2023-02-18T09:16:42.546Z,17.89
2023-02-18T09:21:43.908Z,18.10
2023-02-18T09:26:51.786Z,17.55
2023-02-18T09:31:56.805Z,17.57
2023-02-18T09:37:05.179Z,17.58
2023-02-18T09:42:24.072Z,17.78
2023-02-18T09:47:51.253Z,18.02
2023-02-18T09:52:56.384Z,18.00
2023-02-18T09:58:38.313Z,18.05
2023-02-18T10:03:48.560Z,18.06
2023-02-18T10:09:16.037Z,18.54
2023-02-18T10:14:36.781Z,18.45
2023-02-18T10:20:01.398Z,18.39
2023-02-18T10:25:47.737Z,18.24
2023-02-18T10:31:45.794Z,18.50
2023-02-18T10:45:23.711Z,18.03
2023-02-18T10:57:20.189Z,17.14
2023-02-18T11:02:47.568Z,17.42
2023-02-18T11:08:42.596Z,17.23
2023-02-18T11:15:03.902Z,16.79
2023-02-18T11:20:34.361Z,17.31
2023-02-18T11:33:20.026Z,17.15
2023-02-18T11:39:54.862Z,17.10
2023-02-18T11:45:42.717Z,17.08
2023-02-18T11:58:04.645Z,16.90
2023-02-18T12:03:41.502Z,16.98
2023-02-18T12:14:39.732Z,17.08
2023-02-18T12:19:58.340Z,17.35
2023-02-18T12:31:46.024Z,17.57
2023-02-18T12:37:29.620Z,17.14
2023-02-18T12:49:14.693Z,17.31
2023-02-18T12:54:57.022Z,17.46
2023-02-18T13:24:58.834Z,17.45
2023-02-18T13:39:22.012Z,17.34
2023-02-18T13:45:25.621Z,17.29
2023-02-18T14:10:12.580Z,16.62
2023-02-18T14:36:14.186Z,16.66
2023-02-18T14:42:33.739Z,16.40
2023-02-18T14:48:27.545Z,16.27
2023-02-18T14:53:36.522Z,16.60
2023-02-18T14:59:03.554Z,16.37
2023-02-18T15:04:56.213Z,16.15
2023-02-18T15:10:17.914Z,16.32
2023-02-18T15:15:39.205Z,15.97
2023-02-18T15:20:50.177Z,16.29
2023-02-18T15:27:00.597Z,15.73
2023-02-18T15:32:45.155Z,15.48
2023-02-18T15:38:54.545Z,15.18
2023-02-18T16:10:53.428Z,14.52
2023-02-18T16:15:53.898Z,14.86
2023-02-18T16:20:59.242Z,14.86
2023-02-18T16:26:43.501Z,13.92
2023-02-18T16:32:05.426Z,14.68
2023-02-18T16:37:32.963Z,14.13
2023-02-18T16:42:33.335Z,14.51
2023-02-18T16:47:39.591Z,14.14
2023-02-18T16:52:39.866Z,13.92
2023-02-18T16:57:38.276Z,13.94
2023-02-18T17:02:38.694Z,14.23
2023-02-18T17:07:36.494Z,14.10
2023-02-18T17:12:33.407Z,13.88
2023-02-18T17:17:30.314Z,14.12
2023-02-18T17:22:28.105Z,13.95
2023-02-18T17:27:26.057Z,13.08
2023-02-18T17:32:23.355Z,13.61
2023-02-18T17:37:25.524Z,13.20
2023-02-18T17:42:23.484Z,13.44
2023-02-18T17:47:20.678Z,13.26
2023-02-18T17:52:31.350Z,13.22
2023-02-18T17:57:32.141Z,13.41
2023-02-18T18:02:40.521Z,12.98
2023-02-18T18:07:47.974Z,12.79
2023-02-18T18:12:46.250Z,12.70
2023-02-18T18:23:15.840Z,12.33
2023-02-18T18:28:18.811Z,12.33
2023-02-18T18:33:17.634Z,12.66
2023-02-18T18:38:17.014Z,12.88
2023-02-18T18:43:19.329Z,12.46
2023-02-18T18:48:22.649Z,11.89
2023-02-18T18:53:26.522Z,11.98
2023-02-18T18:58:45.051Z,12.07
2023-02-18T19:03:42.870Z,12.34
2023-02-18T19:08:40.201Z,12.74
2023-02-18T19:13:38.434Z,12.06
2023-02-18T19:18:35.586Z,12.36
2023-02-18T19:23:33.456Z,12.13
2023-02-18T19:28:33.182Z,12.43
2023-02-18T19:33:31.226Z,12.34
2023-02-18T19:38:28.327Z,12.07
2023-02-18T19:43:27.273Z,12.59
2023-02-18T19:48:24.794Z,12.02
2023-02-18T19:53:27.338Z,12.51
2023-02-18T19:58:26.429Z,11.78
2023-02-18T20:03:23.882Z,12.34
2023-02-18T20:08:21.081Z,12.26
2023-02-18T20:13:19.101Z,11.83
2023-02-18T20:18:16.428Z,11.72
2023-02-18T20:23:15.026Z,11.60
2023-02-18T20:28:12.693Z,12.42
2023-02-18T20:33:16.779Z,12.27
2023-02-18T20:38:14.050Z,12.26
2023-02-18T20:43:11.144Z,11.80
2023-02-18T20:48:08.207Z,12.33
2023-02-18T20:53:09.129Z,11.81
2023-02-18T20:58:06.306Z,12.17
2023-02-18T21:03:25.361Z,12.38
2023-02-18T21:08:35.614Z,11.67
2023-02-18T21:13:42.529Z,12.22
2023-02-18T21:19:04.693Z,12.27
2023-02-18T21:24:20.586Z,12.08
2023-02-18T21:29:41.051Z,12.29
2023-02-18T21:35:20.578Z,12.40
2023-02-18T21:40:53.759Z,12.59
2023-02-18T21:46:33.013Z,12.61
2023-02-18T21:51:59.942Z,12.62
2023-02-18T21:57:50.084Z,12.60
2023-02-18T22:08:53.914Z,12.61
2023-02-18T22:14:17.594Z,12.44
2023-02-18T22:19:23.586Z,11.99
2023-02-18T22:24:28.317Z,12.63
2023-02-18T22:29:54.753Z,12.32
2023-02-18T22:35:02.029Z,12.60
2023-02-18T22:40:02.674Z,12.19
2023-02-18T22:45:07.320Z,12.40
2023-02-18T22:50:07.262Z,11.94
2023-02-18T22:55:12.390Z,12.10
2023-02-18T23:00:15.358Z,12.42
2023-02-18T23:05:15.188Z,12.57
2023-02-18T23:10:32.374Z,12.39
2023-02-18T23:15:37.340Z,12.58
2023-02-18T23:21:04.488Z,12.62
2023-02-18T23:26:19.852Z,11.92
2023-02-18T23:31:27.166Z,12.50
2023-02-18T23:36:26.555Z,12.27
2023-02-18T23:41:27.488Z,12.53
2023-02-18T23:46:30.818Z,12.31
2023-02-18T23:52:03.653Z,12.15
2023-02-18T23:57:42.722Z,12.96
